Time;durP1;ratioP1;P1;durP2;ratioP2;P2;SDS_P1;SDS_P2;PMS_P1;PMS_P2;Temp;Humidity;BMP_temperature;BMP_pressure;BME280_temperature;BME280_humidity;BME280_pressure;Samples;Min_cycle;Max_cycle;Signal;HPM_P1;HPM_P2
2023/10/25 00:04:47;;;;;;;1.55;1.55;;;;;;;;;;10451682;28;20222;-73
2023/10/25 00:09:48;;;;;;;1.73;1.63;;;;;;;;;;10429606;28;20214;-74
2023/10/25 00:14:49;;;;;;;2.10;1.88;;;;;;;;;;10457368;28;20813;-74
2023/10/25 00:19:52;;;;;;;2.45;2.25;;;;;;;;;;10461667;28;20206;-73
2023/10/25 00:24:53;;;;;;;3.90;2.20;;;;;;;;;;10458078;28;20214;-72
2023/10/25 00:29:54;;;;;;;2.60;2.30;;;;;;;;;;10458201;28;20211;-72
2023/10/25 00:34:55;;;;;;;3.65;2.40;;;;;;;;;;10464405;28;20591;-72
2023/10/25 00:39:56;;;;;;;2.20;2.10;;;;;;;;;;10427294;28;20711;-74
2023/10/25 00:44:57;;;;;;;2.13;2.03;;;;;;;;;;10436223;28;20524;-73
2023/10/25 00:49:59;;;;;;;1.80;1.77;;;;;;;;;;10437077;28;20735;-73
2023/10/25 00:55:00;;;;;;;2.40;2.20;;;;;;;;;;10424668;28;20217;-72
2023/10/25 01:00:02;;;;;;;1.52;1.52;;;;;;;;;;10450841;28;20210;-72
2023/10/25 01:05:04;;;;;;;2.15;2.05;;;;;;;;;;10424643;28;20226;-73
2023/10/25 01:10:05;;;;;;;2.10;2.00;;;;;;;;;;10435344;28;20226;-72
2023/10/25 01:15:06;;;;;;;2.22;1.85;;;;;;;;;;10434285;28;20204;-73
2023/10/25 01:20:07;;;;;;;1.67;1.67;;;;;;;;;;10444081;28;20171;-74
2023/10/25 01:25:08;;;;;;;2.15;2.05;;;;;;;;;;10435033;28;20210;-72
2023/10/25 01:30:10;;;;;;;2.35;2.25;;;;;;;;;;10453381;28;20222;-73
2023/10/25 01:35:11;;;;;;;2.15;1.90;;;;;;;;;;10450512;28;20647;-73
2023/10/25 01:40:12;;;;;;;1.88;1.88;;;;;;;;;;10435292;28;20202;-72
2023/10/25 01:45:13;;;;;;;3.03;1.90;;;;;;;;;;10429559;28;20317;-73
2023/10/25 01:50:14;;;;;;;2.28;2.17;;;;;;;;;;10439009;28;20217;-72
2023/10/25 01:55:16;;;;;;;2.17;2.08;;;;;;;;;;10452714;28;20241;-72
2023/10/25 02:00:17;;;;;;;2.70;2.60;;;;;;;;;;10434043;28;20197;-72
2023/10/25 02:05:18;;;;;;;2.60;2.45;;;;;;;;;;10449610;28;20293;-73
2023/10/25 02:10:20;;;;;;;2.25;2.20;;;;;;;;;;10453448;28;20211;-72
2023/10/25 02:15:21;;;;;;;3.25;3.05;;;;;;;;;;10434734;28;20202;-72
2023/10/25 02:20:23;;;;;;;2.60;2.50;;;;;;;;;;10437651;28;20603;-73
2023/10/25 02:25:24;;;;;;;2.45;2.35;;;;;;;;;;10435022;28;20263;-71
2023/10/25 02:30:26;;;;;;;2.78;2.53;;;;;;;;;;10417018;28;20214;-72
2023/10/25 02:35:27;;;;;;;2.33;2.22;;;;;;;;;;10434989;28;20703;-72
2023/10/25 02:40:28;;;;;;;2.53;2.33;;;;;;;;;;10438464;28;20210;-71
2023/10/25 02:45:30;;;;;;;3.75;2.00;;;;;;;;;;10458193;28;20392;-73
2023/10/25 02:50:31;;;;;;;2.60;2.40;;;;;;;;;;10430376;28;20222;-73
2023/10/25 02:55:35;;;;;;;3.40;3.10;;;;;;;;;;10444268;28;20806;-71
2023/10/25 03:00:36;;;;;;;4.18;2.72;;;;;;;;;;10454073;28;20635;-72
2023/10/25 03:05:37;;;;;;;2.72;2.63;;;;;;;;;;10433804;28;20221;-72
2023/10/25 03:10:38;;;;;;;3.28;3.00;;;;;;;;;;10457788;28;20213;-73
2023/10/25 03:15:39;;;;;;;2.95;2.75;;;;;;;;;;10429452;28;20218;-71
2023/10/25 03:20:40;;;;;;;1.95;1.85;;;;;;;;;;10458921;28;20221;-71
2023/10/25 03:25:41;;;;;;;3.67;3.05;;;;;;;;;;10445691;28;20218;-73
2023/10/25 03:30:42;;;;;;;2.75;2.65;;;;;;;;;;10443726;28;20222;-72
2023/10/25 03:35:50;;;;;;;4.13;3.25;;;;;;;;;;10458104;28;20295;-72
2023/10/25 03:40:59;;;;;;;3.67;3.38;;;;;;;;;;10460088;28;20225;-74
2023/10/25 03:46:07;;;;;;;4.32;2.78;;;;;;;;;;10444317;28;20210;-74
2023/10/25 03:51:10;;;;;;;3.58;3.00;;;;;;;;;;10463219;28;20283;-73
2023/10/25 03:56:11;;;;;;;3.95;3.65;;;;;;;;;;10448977;28;20217;-73
2023/10/25 04:01:13;;;;;;;5.53;3.78;;;;;;;;;;10423135;28;20214;-73
2023/10/25 04:06:14;;;;;;;4.47;4.10;;;;;;;;;;10452892;28;20505;-73
2023/10/25 04:11:15;;;;;;;3.42;3.22;;;;;;;;;;10443188;28;20228;-74
2023/10/25 04:16:16;;;;;;;4.53;3.38;;;;;;;;;;10463869;28;20234;-73
2023/10/25 04:21:17;;;;;;;4.40;3.58;;;;;;;;;;10465025;28;20877;-73
2023/10/25 04:26:18;;;;;;;6.35;4.32;;;;;;;;;;10446897;28;20284;-74
2023/10/25 04:31:20;;;;;;;3.83;3.53;;;;;;;;;;10428171;28;20240;-74
2023/10/25 04:36:21;;;;;;;3.53;3.30;;;;;;;;;;10460400;28;20765;-73
2023/10/25 04:41:22;;;;;;;3.08;2.90;;;;;;;;;;10464501;28;20207;-74
2023/10/25 04:46:23;;;;;;;3.97;3.67;;;;;;;;;;10458396;28;20210;-73
2023/10/25 04:51:24;;;;;;;3.53;3.28;;;;;;;;;;10450050;28;20238;-72
2023/10/25 04:56:25;;;;;;;3.28;3.08;;;;;;;;;;10442428;28;20715;-72
2023/10/25 05:01:26;;;;;;;3.05;2.75;;;;;;;;;;10437743;28;20214;-73
2023/10/25 05:06:27;;;;;;;3.25;3.05;;;;;;;;;;10453987;28;20210;-72
2023/10/25 05:11:30;;;;;;;3.50;3.25;;;;;;;;;;10421027;28;20796;-72
2023/10/25 05:16:31;;;;;;;3.13;2.92;;;;;;;;;;10435660;28;22190;-73
2023/10/25 05:21:35;;;;;;;3.38;3.17;;;;;;;;;;10436226;28;20299;-72
2023/10/25 05:26:37;;;;;;;3.00;2.80;;;;;;;;;;10425938;28;20226;-72
2023/10/25 05:31:42;;;;;;;3.17;2.97;;;;;;;;;;10426546;28;20720;-73
2023/10/25 05:36:44;;;;;;;2.75;2.50;;;;;;;;;;10439683;28;20213;-73
2023/10/25 05:41:45;;;;;;;3.95;3.20;;;;;;;;;;10442258;28;20321;-74
2023/10/25 05:46:46;;;;;;;7.03;3.03;;;;;;;;;;10435787;28;20214;-73
2023/10/25 05:51:47;;;;;;;3.38;3.05;;;;;;;;;;10437075;28;20219;-73
2023/10/25 05:56:48;;;;;;;3.78;3.47;;;;;;;;;;10462183;28;20209;-73
2023/10/25 06:01:50;;;;;;;5.32;3.50;;;;;;;;;;10459830;28;20257;-74
2023/10/25 06:06:51;;;;;;;4.38;3.42;;;;;;;;;;10447429;28;20225;-72
2023/10/25 06:11:53;;;;;;;2.20;2.10;;;;;;;;;;10443022;28;20268;-72
2023/10/25 06:16:54;;;;;;;3.60;3.25;;;;;;;;;;10441472;28;20337;-73
2023/10/25 06:21:55;;;;;;;5.32;3.38;;;;;;;;;;10426567;28;20289;-73
2023/10/25 06:26:56;;;;;;;3.85;3.53;;;;;;;;;;10440316;28;20228;-72
2023/10/25 06:31:57;;;;;;;6.82;4.15;;;;;;;;;;10458018;28;20312;-73
2023/10/25 06:36:58;;;;;;;7.85;3.90;;;;;;;;;;10460750;28;20242;-73
2023/10/25 06:42:01;;;;;;;4.72;4.03;;;;;;;;;;10423853;28;20218;-73
2023/10/25 06:47:04;;;;;;;3.63;3.35;;;;;;;;;;10424835;28;20275;-73
2023/10/25 06:52:05;;;;;;;4.75;3.83;;;;;;;;;;10455788;28;20835;-73
2023/10/25 06:57:07;;;;;;;4.50;4.13;;;;;;;;;;10426512;28;20713;-73
2023/10/25 07:02:17;;;;;;;5.20;4.25;;;;;;;;;;10454549;28;20424;-72
2023/10/25 07:07:22;;;;;;;4.13;3.83;;;;;;;;;;10456555;28;20209;-73
2023/10/25 07:12:23;;;;;;;6.45;4.78;;;;;;;;;;10453451;28;20305;-73
2023/10/25 07:17:27;;;;;;;4.10;3.70;;;;;;;;;;10441233;28;20238;-72
2023/10/25 07:22:28;;;;;;;7.45;3.50;;;;;;;;;;10460411;28;20206;-73
2023/10/25 07:27:30;;;;;;;4.38;4.03;;;;;;;;;;10456882;28;20256;-73
2023/10/25 07:32:32;;;;;;;6.45;4.00;;;;;;;;;;10430257;28;20210;-73
2023/10/25 07:37:33;;;;;;;4.30;3.90;;;;;;;;;;10466469;28;20282;-72
2023/10/25 07:42:34;;;;;;;4.00;3.70;;;;;;;;;;10453946;28;20238;-72
2023/10/25 07:47:35;;;;;;;4.05;3.75;;;;;;;;;;10459373;28;20303;-72
2023/10/25 07:52:36;;;;;;;4.57;4.15;;;;;;;;;;10450951;28;20214;-72
2023/10/25 07:57:38;;;;;;;7.45;4.18;;;;;;;;;;10461563;28;20214;-72
2023/10/25 08:02:40;;;;;;;12.55;4.07;;;;;;;;;;10463990;28;20218;-72
2023/10/25 08:07:42;;;;;;;4.88;3.75;;;;;;;;;;10461858;28;20711;-72
2023/10/25 08:12:43;;;;;;;7.30;3.92;;;;;;;;;;10463512;28;20222;-72
2023/10/25 08:17:44;;;;;;;4.03;3.63;;;;;;;;;;10450732;28;20355;-72
2023/10/25 08:22:45;;;;;;;5.15;3.95;;;;;;;;;;10427396;28;20359;-72
2023/10/25 08:27:46;;;;;;;3.55;3.35;;;;;;;;;;10466615;28;20569;-72
2023/10/25 08:32:47;;;;;;;5.07;3.78;;;;;;;;;;10464546;28;20218;-72
2023/10/25 08:37:48;;;;;;;3.80;3.30;;;;;;;;;;10459793;28;20351;-72
2023/10/25 08:42:50;;;;;;;3.95;3.38;;;;;;;;;;10448218;28;20322;-72
2023/10/25 08:47:51;;;;;;;4.10;3.65;;;;;;;;;;10444344;28;20218;-72
2023/10/25 08:52:52;;;;;;;5.32;3.75;;;;;;;;;;10464284;28;20215;-72
2023/10/25 08:57:56;;;;;;;5.22;3.72;;;;;;;;;;10463606;28;20226;-72
2023/10/25 09:02:59;;;;;;;3.83;3.53;;;;;;;;;;10443807;28;20279;-71
2023/10/25 09:08:13;;;;;;;3.90;3.70;;;;;;;;;;10445702;28;20305;-71
2023/10/25 09:13:16;;;;;;;3.63;3.40;;;;;;;;;;10447771;28;21015;-73
2023/10/25 09:18:17;;;;;;;4.30;3.85;;;;;;;;;;10441876;28;20234;-71
2023/10/25 09:23:18;;;;;;;6.47;3.22;;;;;;;;;;10428651;28;20214;-72
2023/10/25 09:28:30;;;;;;;2.80;2.67;;;;;;;;;;10441732;28;20218;-72
2023/10/25 09:33:31;;;;;;;2.70;2.50;;;;;;;;;;10459415;28;20577;-71
2023/10/25 09:38:32;;;;;;;2.00;1.88;;;;;;;;;;10458483;28;20210;-71
2023/10/25 09:43:33;;;;;;;2.60;2.05;;;;;;;;;;10459078;28;20210;-71
2023/10/25 09:48:36;;;;;;;2.40;2.15;;;;;;;;;;10461072;28;20241;-72
2023/10/25 09:53:47;;;;;;;1.38;1.27;;;;;;;;;;10442456;28;20245;-72
2023/10/25 09:58:50;;;;;;;3.60;1.23;;;;;;;;;;10461918;28;20211;-71
2023/10/25 10:03:55;;;;;;;0.88;0.70;;;;;;;;;;10436952;28;20257;-71
2023/10/25 10:09:15;;;;;;;2.15;0.77;;;;;;;;;;10460530;28;20887;-73
2023/10/25 10:14:29;;;;;;;1.35;1.25;;;;;;;;;;10455925;28;20918;-72
2023/10/25 10:19:33;;;;;;;2.30;0.93;;;;;;;;;;10460439;28;20209;-72
2023/10/25 10:24:45;;;;;;;1.67;0.77;;;;;;;;;;10454670;28;20225;-73
2023/10/25 10:29:46;;;;;;;1.92;1.02;;;;;;;;;;10423961;28;20727;-72
2023/10/25 10:34:57;;;;;;;1.33;1.13;;;;;;;;;;10443540;28;20237;-72
2023/10/25 10:39:58;;;;;;;1.17;1.17;;;;;;;;;;10440961;28;20590;-73
2023/10/25 10:45:03;;;;;;;5.03;1.00;;;;;;;;;;10443848;28;20746;-73
2023/10/25 10:50:13;;;;;;;2.30;0.90;;;;;;;;;;10452846;28;20222;-73
2023/10/25 10:55:21;;;;;;;1.40;1.33;;;;;;;;;;10424099;28;20206;-72
2023/10/25 11:00:23;;;;;;;2.58;0.90;;;;;;;;;;10452294;28;20301;-71
2023/10/25 11:05:24;;;;;;;1.00;1.00;;;;;;;;;;10450970;28;20209;-71
2023/10/25 11:10:25;;;;;;;2.45;1.42;;;;;;;;;;10447018;28;20504;-73
2023/10/25 11:15:29;;;;;;;4.57;1.10;;;;;;;;;;10421628;28;20217;-72
2023/10/25 11:20:31;;;;;;;1.38;1.38;;;;;;;;;;10432831;28;20229;-72
2023/10/25 11:25:32;;;;;;;1.42;1.30;;;;;;;;;;10449444;28;20218;-71
2023/10/25 11:30:34;;;;;;;1.73;1.55;;;;;;;;;;10437303;28;20229;-72
2023/10/25 11:35:37;;;;;;;1.77;1.77;;;;;;;;;;10431984;28;20226;-72
2023/10/25 11:40:45;;;;;;;1.15;1.08;;;;;;;;;;10439215;28;20218;-72
2023/10/25 11:45:46;;;;;;;1.95;1.58;;;;;;;;;;10442226;28;20213;-71
2023/10/25 11:50:47;;;;;;;2.13;1.88;;;;;;;;;;10456133;28;20611;-72
2023/10/25 11:55:48;;;;;;;1.88;1.77;;;;;;;;;;10457777;28;20272;-72
2023/10/25 12:00:49;;;;;;;5.38;1.33;;;;;;;;;;10462696;28;20345;-73
2023/10/25 12:05:50;;;;;;;2.38;1.52;;;;;;;;;;10458512;28;20214;-72
2023/10/25 12:10:51;;;;;;;1.70;1.60;;;;;;;;;;10445477;28;20896;-71
2023/10/25 12:15:52;;;;;;;1.65;1.27;;;;;;;;;;10453965;28;20222;-71
2023/10/25 12:20:53;;;;;;;1.13;0.93;;;;;;;;;;10461733;28;20210;-72
2023/10/25 12:25:54;;;;;;;1.00;1.00;;;;;;;;;;10462058;28;20681;-73
2023/10/25 12:30:55;;;;;;;1.30;0.80;;;;;;;;;;10461664;28;20233;-72
2023/10/25 12:35:57;;;;;;;2.63;0.70;;;;;;;;;;10440187;28;20694;-72
2023/10/25 12:40:58;;;;;;;2.72;0.80;;;;;;;;;;10433882;28;20689;-72
2023/10/25 12:45:59;;;;;;;0.47;0.43;;;;;;;;;;10460208;28;20221;-72
2023/10/25 12:51:00;;;;;;;0.30;0.30;;;;;;;;;;10442959;28;20221;-72
2023/10/25 12:56:02;;;;;;;0.82;0.47;;;;;;;;;;10448589;28;20624;-73
2023/10/25 13:01:03;;;;;;;0.50;0.50;;;;;;;;;;10440543;28;20218;-73
2023/10/25 13:06:04;;;;;;;1.65;0.38;;;;;;;;;;10450528;28;20210;-72
2023/10/25 13:11:05;;;;;;;0.50;0.22;;;;;;;;;;10423609;28;20226;-72
2023/10/25 13:16:06;;;;;;;0.40;0.35;;;;;;;;;;10452046;28;20214;-72
2023/10/25 13:21:07;;;;;;;1.13;0.40;;;;;;;;;;10461916;28;20210;-72
2023/10/25 13:26:08;;;;;;;0.63;0.50;;;;;;;;;;10447633;28;20238;-73
2023/10/25 13:31:09;;;;;;;0.70;0.47;;;;;;;;;;10453456;28;20623;-73
2023/10/25 13:36:10;;;;;;;1.05;0.50;;;;;;;;;;10460644;28;20225;-73
2023/10/25 13:41:11;;;;;;;3.30;0.30;;;;;;;;;;10460388;28;20610;-74
2023/10/25 13:46:12;;;;;;;1.35;0.35;;;;;;;;;;10457797;28;20221;-72
2023/10/25 13:51:13;;;;;;;0.30;0.30;;;;;;;;;;10437306;28;20722;-72
2023/10/25 13:56:19;;;;;;;0.30;0.30;;;;;;;;;;10444637;28;20214;-73
2023/10/25 14:01:20;;;;;;;1.00;0.28;;;;;;;;;;10456474;28;20708;-72
2023/10/25 14:06:21;;;;;;;1.92;0.40;;;;;;;;;;10426524;28;20321;-72
2023/10/25 14:11:22;;;;;;;0.30;0.30;;;;;;;;;;10443420;28;20210;-73
2023/10/25 14:16:23;;;;;;;0.20;0.20;;;;;;;;;;10443721;28;20250;-72
2023/10/25 14:21:24;;;;;;;2.40;0.20;;;;;;;;;;10440011;28;20298;-72
2023/10/25 14:26:25;;;;;;;0.35;0.30;;;;;;;;;;10456223;28;20226;-73
2023/10/25 14:31:26;;;;;;;0.65;0.43;;;;;;;;;;10438378;28;20309;-73
2023/10/25 14:36:31;;;;;;;0.73;0.43;;;;;;;;;;10456298;28;20280;-74
2023/10/25 14:41:32;;;;;;;0.57;0.57;;;;;;;;;;10446473;28;20660;-72
2023/10/25 14:46:33;;;;;;;1.10;1.10;;;;;;;;;;10437649;28;20218;-73
2023/10/25 14:51:35;;;;;;;3.85;0.82;;;;;;;;;;10454808;28;20655;-73
2023/10/25 14:56:36;;;;;;;1.25;1.00;;;;;;;;;;10434953;28;20370;-73
2023/10/25 15:01:37;;;;;;;0.90;0.90;;;;;;;;;;10399462;28;20281;-73
2023/10/25 15:06:38;;;;;;;1.00;1.00;;;;;;;;;;10444244;28;20853;-75
2023/10/25 15:11:39;;;;;;;2.70;0.80;;;;;;;;;;10438293;28;20719;-72
2023/10/25 15:16:42;;;;;;;1.83;0.80;;;;;;;;;;10427987;28;20207;-71
2023/10/25 15:21:43;;;;;;;1.50;0.70;;;;;;;;;;10456330;28;20210;-72
2023/10/25 15:26:44;;;;;;;1.45;0.80;;;;;;;;;;10413590;28;20233;-72
2023/10/25 15:31:45;;;;;;;2.40;0.80;;;;;;;;;;10427965;28;20218;-72
2023/10/25 15:36:46;;;;;;;0.60;0.60;;;;;;;;;;10453830;28;20218;-72
2023/10/25 15:41:47;;;;;;;4.07;0.70;;;;;;;;;;10452819;28;20210;-72
2023/10/25 15:46:48;;;;;;;2.03;0.70;;;;;;;;;;10440319;28;20203;-73
2023/10/25 15:51:49;;;;;;;1.05;1.05;;;;;;;;;;10439912;28;20214;-72
2023/10/25 15:56:50;;;;;;;1.15;0.82;;;;;;;;;;10454749;28;20218;-73
2023/10/25 16:01:51;;;;;;;2.80;0.82;;;;;;;;;;10436352;28;20314;-72
2023/10/25 16:06:52;;;;;;;0.60;0.60;;;;;;;;;;10424354;28;20214;-73
2023/10/25 16:11:53;;;;;;;2.17;0.70;;;;;;;;;;10434343;28;20226;-73
2023/10/25 16:16:54;;;;;;;3.15;0.60;;;;;;;;;;10424329;28;20560;-72
2023/10/25 16:21:55;;;;;;;1.17;1.13;;;;;;;;;;10456774;28;20202;-73
2023/10/25 16:26:58;;;;;;;3.05;1.10;;;;;;;;;;10428453;28;20234;-72
2023/10/25 16:31:59;;;;;;;1.65;1.52;;;;;;;;;;10407182;28;20237;-75
2023/10/25 16:37:02;;;;;;;1.30;1.17;;;;;;;;;;10417120;28;20219;-73
2023/10/25 16:42:03;;;;;;;1.27;1.20;;;;;;;;;;10407881;28;20212;-73
2023/10/25 16:47:06;;;;;;;1.48;1.30;;;;;;;;;;10404290;28;20214;-74
2023/10/25 16:52:07;;;;;;;1.95;1.40;;;;;;;;;;10408510;28;20223;-76
2023/10/25 16:57:08;;;;;;;2.45;1.20;;;;;;;;;;10415285;28;20579;-72
2023/10/25 17:02:09;;;;;;;1.77;1.10;;;;;;;;;;10390943;28;20214;-73
2023/10/25 17:07:10;;;;;;;1.40;1.20;;;;;;;;;;10400935;28;20235;-73
2023/10/25 17:12:11;;;;;;;1.23;1.13;;;;;;;;;;10382391;28;20229;-73
2023/10/25 17:17:12;;;;;;;2.08;1.23;;;;;;;;;;10406928;28;20279;-76
2023/10/25 17:22:13;;;;;;;4.93;1.00;;;;;;;;;;10406576;28;20206;-76
2023/10/25 17:27:14;;;;;;;1.75;1.08;;;;;;;;;;10394157;28;20314;-73
2023/10/25 17:32:15;;;;;;;2.15;1.08;;;;;;;;;;10375908;28;20220;-73
2023/10/25 17:37:16;;;;;;;3.45;1.40;;;;;;;;;;10365531;28;20247;-73
2023/10/25 17:42:17;;;;;;;1.90;1.52;;;;;;;;;;10354384;28;20709;-73
2023/10/25 17:47:18;;;;;;;1.20;1.20;;;;;;;;;;10365553;28;20220;-73
2023/10/25 17:52:19;;;;;;;1.33;1.33;;;;;;;;;;10349137;28;20226;-72
2023/10/25 17:57:21;;;;;;;1.50;1.40;;;;;;;;;;10368252;28;20705;-72
2023/10/25 18:02:22;;;;;;;4.53;1.45;;;;;;;;;;10352931;28;20720;-72
2023/10/25 18:07:23;;;;;;;1.45;1.42;;;;;;;;;;10345055;28;20733;-72
2023/10/25 18:12:24;;;;;;;3.17;1.60;;;;;;;;;;10380999;28;20643;-71
2023/10/25 18:17:25;;;;;;;2.53;1.05;;;;;;;;;;10370873;28;20749;-72
2023/10/25 18:22:26;;;;;;;1.45;1.45;;;;;;;;;;10349424;28;20306;-72
2023/10/25 18:27:27;;;;;;;6.82;1.58;;;;;;;;;;10370888;28;20237;-71
2023/10/25 18:32:30;;;;;;;1.13;1.13;;;;;;;;;;10403907;28;20814;-71
2023/10/25 18:37:31;;;;;;;1.35;1.35;;;;;;;;;;10401791;28;20850;-71
2023/10/25 18:42:32;;;;;;;1.42;1.42;;;;;;;;;;10424619;28;20708;-72
2023/10/25 18:47:33;;;;;;;3.58;1.48;;;;;;;;;;10407870;28;20736;-70
2023/10/25 18:52:34;;;;;;;1.33;1.33;;;;;;;;;;10418793;28;20475;-72
2023/10/25 18:57:35;;;;;;;1.27;1.27;;;;;;;;;;10415805;28;20215;-72
2023/10/25 19:02:37;;;;;;;3.90;1.45;;;;;;;;;;10402246;28;20287;-72
2023/10/25 19:07:38;;;;;;;2.60;2.38;;;;;;;;;;10418244;28;20207;-72
2023/10/25 19:12:39;;;;;;;3.08;1.73;;;;;;;;;;10381613;28;20237;-74
2023/10/25 19:17:40;;;;;;;2.22;1.98;;;;;;;;;;10415193;28;20924;-75
2023/10/25 19:22:41;;;;;;;2.75;2.47;;;;;;;;;;10404077;28;20215;-72
2023/10/25 19:27:42;;;;;;;3.75;2.78;;;;;;;;;;10414864;28;20727;-75
2023/10/25 19:32:43;;;;;;;2.75;2.65;;;;;;;;;;10416032;28;20218;-75
2023/10/25 19:37:44;;;;;;;5.68;3.00;;;;;;;;;;10427300;28;20345;-72
2023/10/25 19:42:45;;;;;;;3.25;2.85;;;;;;;;;;10427082;28;20213;-73
2023/10/25 19:47:46;;;;;;;3.92;3.63;;;;;;;;;;10412719;28;20218;-75
2023/10/25 19:52:47;;;;;;;3.72;3.42;;;;;;;;;;10401701;28;20221;-73
2023/10/25 19:57:48;;;;;;;7.30;4.15;;;;;;;;;;10414800;28;20256;-73
2023/10/25 20:02:50;;;;;;;5.55;4.32;;;;;;;;;;10411603;28;20277;-73
2023/10/25 20:07:51;;;;;;;4.68;4.38;;;;;;;;;;10436348;28;20256;-74
2023/10/25 20:12:52;;;;;;;5.07;4.68;;;;;;;;;;10427332;28;20228;-73
2023/10/25 20:17:53;;;;;;;9.05;4.53;;;;;;;;;;10434607;28;20664;-73
2023/10/25 20:22:59;;;;;;;6.13;4.20;;;;;;;;;;10405986;28;20215;-72
2023/10/25 20:28:00;;;;;;;4.78;4.47;;;;;;;;;;10403021;28;20231;-72
2023/10/25 20:33:01;;;;;;;4.28;3.85;;;;;;;;;;10422781;28;20736;-73
2023/10/25 20:38:02;;;;;;;5.75;4.22;;;;;;;;;;10416820;28;20852;-73
2023/10/25 20:43:03;;;;;;;4.60;4.20;;;;;;;;;;10433820;28;20226;-73
2023/10/25 20:48:04;;;;;;;3.85;3.65;;;;;;;;;;10432058;28;20217;-73
2023/10/25 20:53:05;;;;;;;4.90;3.45;;;;;;;;;;10431595;28;20231;-73
2023/10/25 20:58:06;;;;;;;4.63;4.32;;;;;;;;;;10419239;28;20252;-73
2023/10/25 21:03:08;;;;;;;4.05;3.83;;;;;;;;;;10419037;28;20215;-74
2023/10/25 21:08:09;;;;;;;4.70;4.30;;;;;;;;;;10413593;28;20218;-74
2023/10/25 21:13:10;;;;;;;4.18;3.83;;;;;;;;;;10401214;28;20778;-74
2023/10/25 21:18:11;;;;;;;4.50;4.20;;;;;;;;;;10387091;28;20273;-74
2023/10/25 21:23:12;;;;;;;4.07;3.90;;;;;;;;;;10431979;28;20716;-73
2023/10/25 21:28:13;;;;;;;4.00;3.70;;;;;;;;;;10393358;28;20284;-73
2023/10/25 21:33:14;;;;;;;4.70;4.25;;;;;;;;;;10428740;28;20218;-73
2023/10/25 21:38:15;;;;;;;4.32;3.88;;;;;;;;;;10434140;28;20211;-74
2023/10/25 21:43:16;;;;;;;3.42;3.22;;;;;;;;;;10384862;28;20705;-73
2023/10/25 21:48:17;;;;;;;3.35;3.15;;;;;;;;;;10430079;28;21447;-74
2023/10/25 21:53:18;;;;;;;2.22;2.13;;;;;;;;;;10416809;28;20688;-74
2023/10/25 21:58:19;;;;;;;2.88;2.78;;;;;;;;;;10413710;28;20218;-76
2023/10/25 22:03:20;;;;;;;1.88;1.88;;;;;;;;;;10427286;28;20299;-74
2023/10/25 22:08:21;;;;;;;2.38;2.28;;;;;;;;;;10415470;28;20238;-73
2023/10/25 22:13:22;;;;;;;1.88;1.88;;;;;;;;;;10414772;28;20302;-73
2023/10/25 22:18:23;;;;;;;2.10;2.00;;;;;;;;;;10406533;28;20441;-74
2023/10/25 22:23:25;;;;;;;2.10;2.10;;;;;;;;;;10417788;28;20696;-74
2023/10/25 22:28:26;;;;;;;2.25;1.70;;;;;;;;;;10405397;28;20833;-74
2023/10/25 22:33:27;;;;;;;2.63;2.53;;;;;;;;;;10414420;28;20216;-73
2023/10/25 22:38:29;;;;;;;2.50;2.40;;;;;;;;;;10414737;28;20256;-73
2023/10/25 22:43:31;;;;;;;2.50;2.40;;;;;;;;;;10412100;28;20233;-73
2023/10/25 22:48:33;;;;;;;2.13;2.00;;;;;;;;;;10426861;28;20215;-73
2023/10/25 22:53:33;;;;;;;3.17;2.08;;;;;;;;;;10414658;28;20222;-74
2023/10/25 22:58:34;;;;;;;2.53;2.42;;;;;;;;;;10428306;28;20209;-74
2023/10/25 23:03:35;;;;;;;2.25;2.08;;;;;;;;;;10409374;28;20221;-74
2023/10/25 23:08:36;;;;;;;1.92;1.92;;;;;;;;;;10414501;28;20246;-73
2023/10/25 23:13:38;;;;;;;2.17;2.08;;;;;;;;;;10398614;28;20214;-73
2023/10/25 23:18:39;;;;;;;2.00;1.90;;;;;;;;;;10430876;28;20241;-73
2023/10/25 23:23:40;;;;;;;1.98;1.98;;;;;;;;;;10430551;28;20277;-72
2023/10/25 23:28:41;;;;;;;2.20;2.10;;;;;;;;;;10427356;28;20223;-73
2023/10/25 23:33:42;;;;;;;2.10;2.00;;;;;;;;;;10415736;28;20268;-73
2023/10/25 23:38:43;;;;;;;2.28;2.20;;;;;;;;;;10405032;28;20209;-73
2023/10/25 23:43:45;;;;;;;2.45;2.35;;;;;;;;;;10425724;28;20214;-74
2023/10/25 23:48:46;;;;;;;2.65;2.55;;;;;;;;;;10436859;28;20263;-75
2023/10/25 23:53:47;;;;;;;2.95;2.60;;;;;;;;;;10446119;28;20215;-74
2023/10/25 23:58:48;;;;;;;2.33;2.13;;;;;;;;;;10436951;28;20715;-72
